createdAt,value
2023-05-09T00:01:13.396Z,16.19
2023-05-09T00:03:40.534Z,16.19
2023-05-09T00:06:07.256Z,16.17
2023-05-09T00:08:33.602Z,16.19
2023-05-09T00:10:59.908Z,16.17
2023-05-09T00:13:26.295Z,16.05
2023-05-09T00:15:54.030Z,16.16
2023-05-09T00:18:22.012Z,16.09
2023-05-09T00:20:49.014Z,16.12
2023-05-09T00:23:16.472Z,16.12
2023-05-09T00:25:43.115Z,16.09
2023-05-09T00:28:09.434Z,16.07
2023-05-09T00:30:35.788Z,16.07
2023-05-09T00:33:02.408Z,16.03
2023-05-09T00:35:29.013Z,16.05
2023-05-09T00:37:55.306Z,16.03
2023-05-09T00:40:21.693Z,15.98
2023-05-09T00:42:47.986Z,15.98
2023-05-09T00:45:14.477Z,15.99
2023-05-09T00:47:41.159Z,16.00
2023-05-09T00:50:08.820Z,15.96
2023-05-09T00:52:36.002Z,15.96
2023-05-09T00:55:02.577Z,15.95
2023-05-09T00:57:29.029Z,15.96
2023-05-09T00:59:55.459Z,15.96
2023-05-09T01:02:22.014Z,15.92
2023-05-09T01:04:48.461Z,15.96
2023-05-09T01:07:48.646Z,15.95
2023-05-09T01:10:58.236Z,15.94
2023-05-09T01:13:35.595Z,15.85
2023-05-09T01:16:16.273Z,15.90
2023-05-09T01:18:48.911Z,15.91
2023-05-09T01:21:24.034Z,15.90
2023-05-09T01:24:17.732Z,15.90
2023-05-09T01:26:57.871Z,15.89
2023-05-09T01:29:33.155Z,15.89
2023-05-09T01:32:04.545Z,15.81
2023-05-09T01:34:33.728Z,15.84
2023-05-09T01:37:02.151Z,15.88
2023-05-09T01:39:31.750Z,15.89
2023-05-09T01:42:01.881Z,15.82
2023-05-09T01:44:35.293Z,15.82
2023-05-09T01:47:04.210Z,15.82
2023-05-09T01:49:33.422Z,15.76
2023-05-09T01:52:03.670Z,15.72
2023-05-09T01:54:30.896Z,15.74
2023-05-09T01:56:59.094Z,15.66
2023-05-09T01:59:27.893Z,15.70
2023-05-09T02:01:55.695Z,15.58
2023-05-09T02:04:22.352Z,15.58
2023-05-09T02:06:51.321Z,15.61
2023-05-09T02:09:19.245Z,15.58
2023-05-09T02:11:46.697Z,15.55
2023-05-09T02:14:13.849Z,15.47
2023-05-09T02:16:40.912Z,15.45
2023-05-09T02:19:07.368Z,15.37
2023-05-09T02:21:33.828Z,15.37
2023-05-09T02:24:00.333Z,15.33
2023-05-09T02:26:26.757Z,15.31
2023-05-09T02:28:54.078Z,15.26
2023-05-09T02:31:22.645Z,15.26
2023-05-09T02:33:50.153Z,15.23
2023-05-09T02:36:17.200Z,15.19
2023-05-09T02:38:44.126Z,15.18
2023-05-09T02:41:16.337Z,15.13
2023-05-09T02:43:43.036Z,15.06
2023-05-09T02:46:10.421Z,15.04
2023-05-09T02:48:36.943Z,15.01
2023-05-09T02:51:03.282Z,14.97
2023-05-09T02:53:29.565Z,14.89
2023-05-09T02:55:55.845Z,14.83
2023-05-09T02:58:22.145Z,14.87
2023-05-09T03:00:48.454Z,14.87
2023-05-09T03:03:14.925Z,14.84
2023-05-09T03:05:41.245Z,14.80
2023-05-09T03:08:07.533Z,14.73
2023-05-09T03:10:34.132Z,14.72
2023-05-09T03:13:00.819Z,14.69
2023-05-09T03:15:27.169Z,14.64
2023-05-09T03:17:53.586Z,14.66
2023-05-09T03:20:20.097Z,14.69
2023-05-09T03:22:48.252Z,14.63
2023-05-09T03:25:14.706Z,14.66
2023-05-09T03:27:41.085Z,14.63
2023-05-09T03:30:08.066Z,14.58
2023-05-09T03:32:34.407Z,14.57
2023-05-09T03:35:00.704Z,14.57
2023-05-09T03:37:27.309Z,14.54
2023-05-09T03:39:53.776Z,14.45
2023-05-09T03:42:20.238Z,14.46
2023-05-09T03:44:46.618Z,14.40
2023-05-09T03:47:12.994Z,14.45
2023-05-09T03:49:39.332Z,14.42
2023-05-09T03:52:05.792Z,14.38
2023-05-09T03:54:32.097Z,14.39
2023-05-09T03:56:58.400Z,14.38
2023-05-09T03:59:24.725Z,14.37
2023-05-09T04:01:51.206Z,14.36
2023-05-09T04:04:17.659Z,14.36
2023-05-09T04:06:43.974Z,14.35
2023-05-09T04:09:10.518Z,14.20
2023-05-09T04:11:36.737Z,14.29
2023-05-09T04:14:06.853Z,14.19
2023-05-09T04:16:33.464Z,14.26
2023-05-09T04:18:59.887Z,14.28
2023-05-09T04:21:26.271Z,14.20
2023-05-09T04:23:52.697Z,14.18
2023-05-09T04:26:19.006Z,14.28
2023-05-09T04:28:45.265Z,14.27
2023-05-09T04:31:12.847Z,14.28
2023-05-09T04:33:39.357Z,14.23
2023-05-09T04:36:06.091Z,14.18
2023-05-09T04:38:32.374Z,14.32
2023-05-09T04:40:58.759Z,14.35
2023-05-09T04:43:27.851Z,14.38
2023-05-09T04:45:54.321Z,14.41
2023-05-09T04:48:20.637Z,14.44
2023-05-09T04:50:48.447Z,14.47
2023-05-09T04:53:14.793Z,14.43
2023-05-09T04:55:41.052Z,14.47
2023-05-09T04:58:09.079Z,14.46
2023-05-09T05:00:35.720Z,14.57
2023-05-09T05:03:02.168Z,14.57
2023-05-09T05:05:28.588Z,14.65
2023-05-09T05:07:55.407Z,14.64
2023-05-09T05:10:21.698Z,14.77
2023-05-09T05:12:48.019Z,14.80
2023-05-09T05:15:14.647Z,14.88
2023-05-09T05:17:41.161Z,14.98
2023-05-09T05:20:10.388Z,15.06
2023-05-09T05:22:36.679Z,15.00
2023-05-09T05:25:04.498Z,15.14
2023-05-09T05:27:31.287Z,15.24
2023-05-09T05:29:57.694Z,15.30
2023-05-09T05:32:24.090Z,15.37
2023-05-09T05:34:50.473Z,15.45
2023-05-09T05:37:16.819Z,15.45
2023-05-09T05:39:43.175Z,15.55
2023-05-09T05:42:09.467Z,15.60
2023-05-09T05:44:35.744Z,15.64
2023-05-09T05:47:02.024Z,15.71
2023-05-09T05:49:28.359Z,15.80
2023-05-09T05:51:54.655Z,15.89
2023-05-09T05:54:20.985Z,15.96
2023-05-09T05:56:47.257Z,16.08
2023-05-09T05:59:13.725Z,16.14
2023-05-09T06:01:39.991Z,16.32
2023-05-09T06:04:06.443Z,16.42
2023-05-09T06:06:32.753Z,16.53
2023-05-09T06:08:59.047Z,16.66
2023-05-09T06:11:25.400Z,16.80
2023-05-09T06:13:51.711Z,16.82
2023-05-09T06:16:19.998Z,16.90
2023-05-09T06:18:47.698Z,16.92
2023-05-09T06:21:14.027Z,16.91
2023-05-09T06:23:47.274Z,17.00
2023-05-09T06:26:23.714Z,17.06
2023-05-09T06:28:50.105Z,17.13
2023-05-09T06:31:16.440Z,17.20
2023-05-09T06:33:42.773Z,17.14
2023-05-09T06:36:09.193Z,17.41
2023-05-09T06:38:35.414Z,17.59
2023-05-09T06:41:01.692Z,17.64
2023-05-09T06:43:27.977Z,17.53
2023-05-09T06:45:54.294Z,17.60
2023-05-09T06:48:20.693Z,17.62
2023-05-09T06:50:47.043Z,17.59
2023-05-09T06:53:13.576Z,17.57
2023-05-09T06:55:40.002Z,17.63
2023-05-09T06:58:06.328Z,17.75
2023-05-09T07:00:32.633Z,17.83
2023-05-09T07:02:58.975Z,17.91
2023-05-09T07:05:25.301Z,17.92
2023-05-09T07:07:51.679Z,17.98
2023-05-09T07:10:17.980Z,17.99
2023-05-09T07:12:44.353Z,18.03
2023-05-09T07:15:11.088Z,18.11
2023-05-09T07:17:37.540Z,18.14
2023-05-09T07:20:04.759Z,18.19
2023-05-09T07:22:32.132Z,18.19
2023-05-09T07:24:59.369Z,18.20
2023-05-09T07:27:25.684Z,18.28
2023-05-09T07:29:52.554Z,18.31
2023-05-09T07:32:19.449Z,18.37
2023-05-09T07:34:45.719Z,18.38
2023-05-09T07:37:13.674Z,18.39
2023-05-09T07:39:41.655Z,18.25
2023-05-09T07:42:08.375Z,18.37
2023-05-09T07:44:34.663Z,18.39
2023-05-09T07:47:02.428Z,18.36
2023-05-09T07:49:28.712Z,18.25
2023-05-09T07:51:54.927Z,18.16
2023-05-09T07:54:21.273Z,18.01
2023-05-09T07:56:47.542Z,17.99
2023-05-09T07:59:13.833Z,17.99
2023-05-09T08:01:40.348Z,18.08
2023-05-09T08:04:08.886Z,18.10
2023-05-09T08:06:35.895Z,18.17
2023-05-09T08:09:02.237Z,18.23
2023-05-09T08:11:28.928Z,18.29
2023-05-09T08:13:55.212Z,18.30
2023-05-09T08:16:21.564Z,18.34
2023-05-09T08:18:47.934Z,18.31
2023-05-09T08:21:14.293Z,18.39
2023-05-09T08:23:41.182Z,18.21
2023-05-09T08:26:07.639Z,18.22
2023-05-09T08:28:34.171Z,18.21
2023-05-09T08:31:00.599Z,18.25
2023-05-09T08:33:26.951Z,18.30
2023-05-09T08:35:53.596Z,18.39
2023-05-09T08:38:20.429Z,18.44
2023-05-09T08:40:47.060Z,18.51
2023-05-09T08:43:15.929Z,18.77
2023-05-09T08:45:54.153Z,18.97
2023-05-09T08:48:22.108Z,18.98
2023-05-09T08:50:49.142Z,18.89
2023-05-09T08:53:15.746Z,18.76
2023-05-09T08:55:42.233Z,18.73
2023-05-09T08:58:09.544Z,18.72
2023-05-09T09:00:37.452Z,18.64
2023-05-09T09:03:04.101Z,18.65
2023-05-09T09:05:41.326Z,18.70
2023-05-09T09:08:10.078Z,18.82
2023-05-09T09:10:40.508Z,18.72
2023-05-09T09:13:07.414Z,18.81
2023-05-09T09:15:36.754Z,18.78
2023-05-09T09:18:09.724Z,18.88
2023-05-09T09:20:41.553Z,19.01
2023-05-09T09:23:10.543Z,19.04
2023-05-09T09:25:37.084Z,19.06
2023-05-09T09:28:04.917Z,19.16
2023-05-09T09:30:31.204Z,19.31
2023-05-09T09:33:00.502Z,19.41
2023-05-09T09:35:26.938Z,19.42
2023-05-09T09:37:58.509Z,19.41
2023-05-09T09:40:26.665Z,19.24
2023-05-09T09:42:52.997Z,19.09
2023-05-09T09:45:19.906Z,19.09
2023-05-09T09:47:48.038Z,19.08
2023-05-09T09:50:19.259Z,19.12
2023-05-09T09:52:53.681Z,19.16
2023-05-09T09:55:21.981Z,19.15
2023-05-09T09:57:48.761Z,19.12
2023-05-09T10:00:17.295Z,19.16
2023-05-09T10:02:50.810Z,19.24
2023-05-09T10:05:23.792Z,19.40
2023-05-09T10:07:54.914Z,19.47
2023-05-09T10:10:21.760Z,19.58
2023-05-09T10:12:50.405Z,19.70
2023-05-09T10:15:21.690Z,19.84
2023-05-09T10:17:53.657Z,20.03
2023-05-09T10:20:20.340Z,20.25
2023-05-09T10:22:46.963Z,20.44
2023-05-09T10:25:22.867Z,20.63
2023-05-09T10:27:52.259Z,20.74
2023-05-09T10:30:23.806Z,20.81
2023-05-09T10:32:53.917Z,20.73
2023-05-09T10:35:26.160Z,20.63
2023-05-09T10:37:56.481Z,20.42
2023-05-09T10:40:23.556Z,20.25
2023-05-09T10:42:50.255Z,20.35
2023-05-09T10:45:16.952Z,20.49
2023-05-09T10:47:45.029Z,20.63
2023-05-09T10:50:13.065Z,20.84
2023-05-09T10:53:05.524Z,20.92
2023-05-09T10:55:51.029Z,20.86
2023-05-09T10:58:28.742Z,20.91
2023-05-09T11:01:00.089Z,21.05
2023-05-09T11:03:28.116Z,21.27
2023-05-09T11:05:56.839Z,21.53
2023-05-09T11:08:23.421Z,21.77
2023-05-09T11:10:49.753Z,22.00
2023-05-09T11:13:25.343Z,22.08
2023-05-09T11:16:00.684Z,22.13
2023-05-09T11:18:32.695Z,22.12
2023-05-09T11:21:06.768Z,22.14
2023-05-09T11:23:33.185Z,22.34
2023-05-09T11:26:07.746Z,22.40
2023-05-09T11:28:36.317Z,22.46
2023-05-09T11:31:16.110Z,22.30
2023-05-09T11:33:47.670Z,22.18
2023-05-09T11:36:24.980Z,22.14
2023-05-09T11:39:01.939Z,22.11
2023-05-09T11:41:29.187Z,22.08
2023-05-09T11:43:56.793Z,21.89
2023-05-09T11:46:23.168Z,21.67
2023-05-09T11:48:49.694Z,21.40
2023-05-09T11:51:18.013Z,21.39
2023-05-09T11:53:46.774Z,21.30
2023-05-09T11:56:14.559Z,21.24
2023-05-09T11:58:40.997Z,21.11
2023-05-09T12:01:08.723Z,21.07
2023-05-09T12:03:35.933Z,21.09
2023-05-09T12:06:02.512Z,21.23
2023-05-09T12:08:29.065Z,21.31
2023-05-09T12:10:55.497Z,21.49
2023-05-09T12:13:21.807Z,21.51
2023-05-09T12:15:48.462Z,21.52
2023-05-09T12:18:16.957Z,21.52
2023-05-09T12:20:48.253Z,21.45
2023-05-09T12:23:15.102Z,21.47
2023-05-09T12:25:55.401Z,21.66
2023-05-09T12:28:23.750Z,21.96
2023-05-09T12:30:51.518Z,22.37
2023-05-09T12:33:18.541Z,22.61
2023-05-09T12:35:46.732Z,22.66
2023-05-09T12:38:21.519Z,22.66
2023-05-09T12:40:48.707Z,22.68
2023-05-09T12:43:17.662Z,22.63
2023-05-09T12:45:44.076Z,22.68
2023-05-09T12:48:11.762Z,22.68
2023-05-09T12:50:38.170Z,22.94
2023-05-09T12:53:04.590Z,23.23
2023-05-09T12:55:31.698Z,23.51
2023-05-09T12:58:00.542Z,23.60
2023-05-09T13:00:27.145Z,23.59
2023-05-09T13:02:53.811Z,23.31
2023-05-09T13:05:22.181Z,23.24
2023-05-09T13:07:52.040Z,23.16
2023-05-09T13:10:27.273Z,23.26
2023-05-09T13:12:53.805Z,23.21
2023-05-09T13:15:22.429Z,23.02
2023-05-09T13:17:51.076Z,22.84
2023-05-09T13:20:18.401Z,22.70
2023-05-09T13:22:46.288Z,22.72
2023-05-09T13:25:12.849Z,22.81
2023-05-09T13:27:39.339Z,22.82
2023-05-09T13:30:07.656Z,22.98
2023-05-09T13:32:35.019Z,23.08
2023-05-09T13:35:01.426Z,23.16
2023-05-09T13:37:28.123Z,23.12
2023-05-09T13:39:55.298Z,23.04
2023-05-09T13:42:21.624Z,22.95
2023-05-09T13:44:47.925Z,22.68
2023-05-09T13:47:14.198Z,22.48
2023-05-09T13:49:40.495Z,22.34
2023-05-09T13:52:06.836Z,22.18
2023-05-09T13:54:35.035Z,22.19
2023-05-09T13:57:04.822Z,22.42
2023-05-09T13:59:31.549Z,22.67
2023-05-09T14:01:59.700Z,22.90
2023-05-09T14:04:27.238Z,23.18
2023-05-09T14:06:56.728Z,23.36
2023-05-09T14:09:23.141Z,23.50
2023-05-09T14:11:51.539Z,23.61
2023-05-09T14:14:21.366Z,23.59
2023-05-09T14:16:48.359Z,23.38
2023-05-09T14:19:15.518Z,23.14
2023-05-09T14:21:42.952Z,22.81
2023-05-09T14:24:10.704Z,22.73
2023-05-09T14:26:36.996Z,22.65
2023-05-09T14:29:04.546Z,22.42
2023-05-09T14:31:31.211Z,22.37
2023-05-09T14:33:58.839Z,22.24
2023-05-09T14:36:25.866Z,22.21
2023-05-09T14:38:52.462Z,22.02
2023-05-09T14:41:21.331Z,21.85
2023-05-09T14:43:48.479Z,21.65
2023-05-09T14:46:14.848Z,21.15
2023-05-09T14:48:41.516Z,20.54
2023-05-09T14:51:08.390Z,20.05
2023-05-09T14:53:41.517Z,19.71
2023-05-09T14:56:10.322Z,19.36
2023-05-09T14:58:36.930Z,19.09
2023-05-09T15:01:07.000Z,18.87
2023-05-09T15:03:33.514Z,18.74
2023-05-09T15:05:59.803Z,18.71
2023-05-09T15:08:26.860Z,18.70
2023-05-09T15:10:53.215Z,18.80
2023-05-09T15:13:19.595Z,18.87
2023-05-09T15:15:46.083Z,18.95
2023-05-09T15:18:13.249Z,19.03
2023-05-09T15:20:39.711Z,18.98
2023-05-09T15:23:07.582Z,19.18
2023-05-09T15:25:34.557Z,19.15
2023-05-09T15:28:01.287Z,19.18
2023-05-09T15:30:28.072Z,19.20
2023-05-09T15:32:54.458Z,19.24
2023-05-09T15:35:20.946Z,19.27
2023-05-09T15:37:47.288Z,19.22
2023-05-09T15:40:13.767Z,19.32
2023-05-09T15:42:40.377Z,19.35
2023-05-09T15:45:07.508Z,19.41
2023-05-09T15:47:33.907Z,19.39
2023-05-09T15:50:00.337Z,19.47
2023-05-09T15:52:27.710Z,19.41
2023-05-09T15:54:55.813Z,19.48
2023-05-09T15:57:23.153Z,19.41
2023-05-09T15:59:49.511Z,19.29
2023-05-09T16:02:15.907Z,19.36
2023-05-09T16:04:43.835Z,19.30
2023-05-09T16:07:10.110Z,19.26
2023-05-09T16:09:37.169Z,19.21
2023-05-09T16:12:04.157Z,19.17
2023-05-09T16:14:31.162Z,19.13
2023-05-09T16:16:57.532Z,19.11
2023-05-09T16:19:23.784Z,19.08
2023-05-09T16:21:50.074Z,18.95
2023-05-09T16:24:16.691Z,18.96
2023-05-09T16:26:42.994Z,18.83
2023-05-09T16:29:09.809Z,18.86
2023-05-09T16:31:36.253Z,18.88
2023-05-09T16:34:02.916Z,18.90
2023-05-09T16:36:30.261Z,18.84
2023-05-09T16:38:56.628Z,18.85
2023-05-09T16:41:23.019Z,18.78
2023-05-09T16:43:49.419Z,18.89
2023-05-09T16:46:16.174Z,18.99
2023-05-09T16:48:42.628Z,18.91
2023-05-09T16:51:09.116Z,19.02
2023-05-09T16:53:36.223Z,19.00
2023-05-09T16:56:03.836Z,19.03
2023-05-09T16:58:30.270Z,19.05
2023-05-09T17:00:57.035Z,19.01
2023-05-09T17:03:23.807Z,19.01
2023-05-09T17:05:51.130Z,19.03
2023-05-09T17:08:17.468Z,18.89
2023-05-09T17:10:43.687Z,19.01
2023-05-09T17:13:10.252Z,18.97
2023-05-09T17:15:38.223Z,18.91
2023-05-09T17:18:04.968Z,18.86
2023-05-09T17:20:31.706Z,18.78
2023-05-09T17:22:58.028Z,18.71
2023-05-09T17:25:24.234Z,18.58
2023-05-09T17:27:50.532Z,18.41
2023-05-09T17:30:18.339Z,18.23
2023-05-09T17:32:45.835Z,18.11
2023-05-09T17:35:13.573Z,18.03
2023-05-09T17:37:39.944Z,17.92
2023-05-09T17:40:07.799Z,17.94
2023-05-09T17:42:34.110Z,17.84
2023-05-09T17:45:00.445Z,17.87
2023-05-09T17:47:27.344Z,17.90
2023-05-09T17:49:53.640Z,17.97
2023-05-09T17:52:19.902Z,17.99
2023-05-09T17:54:46.686Z,17.91
2023-05-09T17:57:12.991Z,17.62
2023-05-09T17:59:41.279Z,17.24
2023-05-09T18:02:08.028Z,17.19
2023-05-09T18:04:34.592Z,17.00
2023-05-09T18:07:01.439Z,16.94
2023-05-09T18:09:28.066Z,16.84
2023-05-09T18:11:54.497Z,16.77
2023-05-09T18:14:20.802Z,16.72
2023-05-09T18:16:47.151Z,16.75
2023-05-09T18:19:13.497Z,16.75
2023-05-09T18:21:39.891Z,16.78
2023-05-09T18:24:07.517Z,16.79
2023-05-09T18:26:33.897Z,16.81
2023-05-09T18:29:00.237Z,16.81
2023-05-09T18:31:26.674Z,16.81
2023-05-09T18:33:52.909Z,16.80
2023-05-09T18:36:19.207Z,16.82
2023-05-09T18:38:46.567Z,16.78
2023-05-09T18:41:15.449Z,16.78
2023-05-09T18:43:46.127Z,16.81
2023-05-09T18:46:17.254Z,16.81
2023-05-09T18:48:45.114Z,16.80
2023-05-09T18:51:12.095Z,16.83
2023-05-09T18:53:38.521Z,16.87
2023-05-09T18:56:05.120Z,16.90
2023-05-09T18:58:32.409Z,16.95
2023-05-09T19:00:58.875Z,16.96
2023-05-09T19:03:25.412Z,16.94
2023-05-09T19:05:51.660Z,16.85
2023-05-09T19:08:17.990Z,16.84
2023-05-09T19:10:44.761Z,16.85
2023-05-09T19:13:11.955Z,16.87
2023-05-09T19:15:39.697Z,16.85
2023-05-09T19:18:06.257Z,16.64
2023-05-09T19:20:32.575Z,16.69
2023-05-09T19:22:59.137Z,16.61
2023-05-09T19:25:25.941Z,16.45
2023-05-09T19:27:55.520Z,16.31
2023-05-09T19:30:22.010Z,16.28
2023-05-09T19:32:48.242Z,16.24
2023-05-09T19:35:14.683Z,16.14
2023-05-09T19:37:40.963Z,16.11
2023-05-09T19:40:07.855Z,16.04
2023-05-09T19:42:35.200Z,15.96
2023-05-09T19:45:01.862Z,15.94
2023-05-09T19:47:28.266Z,15.87
2023-05-09T19:49:54.615Z,15.87
2023-05-09T19:52:21.031Z,15.83
2023-05-09T19:54:47.291Z,15.81
2023-05-09T19:57:13.662Z,15.73
2023-05-09T19:59:40.080Z,15.68
2023-05-09T20:02:06.836Z,15.66
2023-05-09T20:04:35.107Z,15.67
2023-05-09T20:07:02.452Z,15.70
2023-05-09T20:09:30.316Z,15.68
2023-05-09T20:11:56.605Z,15.69
2023-05-09T20:14:23.007Z,15.67
2023-05-09T20:16:49.398Z,15.71
2023-05-09T20:19:15.884Z,15.74
2023-05-09T20:21:42.115Z,15.78
2023-05-09T20:24:08.917Z,15.77
2023-05-09T20:26:35.229Z,15.73
2023-05-09T20:29:01.656Z,15.70
2023-05-09T20:31:29.018Z,15.64
2023-05-09T20:33:55.626Z,15.66
2023-05-09T20:36:21.921Z,15.70
2023-05-09T20:38:48.273Z,15.68
2023-05-09T20:41:14.651Z,15.67
2023-05-09T20:43:40.905Z,15.69
2023-05-09T20:46:07.235Z,15.67
2023-05-09T20:48:33.608Z,15.68
2023-05-09T20:50:59.928Z,15.67
2023-05-09T20:53:27.532Z,15.69
2023-05-09T20:55:53.869Z,15.67
2023-05-09T20:58:20.305Z,15.68
2023-05-09T21:00:47.069Z,15.69
2023-05-09T21:03:13.736Z,15.67
2023-05-09T21:05:40.771Z,15.65
2023-05-09T21:08:07.107Z,15.61
2023-05-09T21:10:33.430Z,15.61
2023-05-09T21:12:59.774Z,15.63
2023-05-09T21:15:26.066Z,15.62
2023-05-09T21:17:52.392Z,15.60
2023-05-09T21:20:18.938Z,15.60
2023-05-09T21:22:46.002Z,15.61
2023-05-09T21:25:12.827Z,15.56
2023-05-09T21:27:39.113Z,15.58
2023-05-09T21:30:06.342Z,15.52
2023-05-09T21:32:32.670Z,15.59
2023-05-09T21:34:59.035Z,15.59
2023-05-09T21:37:25.501Z,15.61
2023-05-09T21:39:51.799Z,15.61
2023-05-09T21:42:18.156Z,15.59
2023-05-09T21:44:45.003Z,15.52
2023-05-09T21:47:11.613Z,15.54
2023-05-09T21:49:38.600Z,15.48
2023-05-09T21:52:04.888Z,15.53
2023-05-09T21:54:31.175Z,15.53
2023-05-09T21:56:57.433Z,15.49
2023-05-09T21:59:23.714Z,15.51
2023-05-09T22:01:50.090Z,15.49
2023-05-09T22:04:16.388Z,15.42
2023-05-09T22:06:42.881Z,15.43
2023-05-09T22:09:09.522Z,15.47
2023-05-09T22:11:36.419Z,15.45
2023-05-09T22:14:03.529Z,15.47
2023-05-09T22:16:30.241Z,15.46
2023-05-09T22:18:56.930Z,15.43
2023-05-09T22:21:23.249Z,15.45
2023-05-09T22:23:49.560Z,15.43
2023-05-09T22:26:15.827Z,15.40
2023-05-09T22:28:42.170Z,15.40
2023-05-09T22:31:08.671Z,15.39
2023-05-09T22:33:34.954Z,15.37
2023-05-09T22:36:01.539Z,15.31
2023-05-09T22:38:27.779Z,15.33
2023-05-09T22:40:54.046Z,15.31
2023-05-09T22:43:20.369Z,15.36
2023-05-09T22:45:46.877Z,15.36
2023-05-09T22:48:13.105Z,15.25
2023-05-09T22:50:39.450Z,15.32
2023-05-09T22:53:05.770Z,15.29
2023-05-09T22:55:32.073Z,15.31
2023-05-09T22:57:58.330Z,15.27
2023-05-09T23:00:24.640Z,15.26
2023-05-09T23:02:51.084Z,15.23
2023-05-09T23:05:17.433Z,15.21
2023-05-09T23:07:44.256Z,15.14
2023-05-09T23:10:10.570Z,15.09
2023-05-09T23:12:37.969Z,15.06
2023-05-09T23:15:06.237Z,14.99
2023-05-09T23:17:32.574Z,14.91
2023-05-09T23:20:00.555Z,14.85
2023-05-09T23:22:27.001Z,14.86
2023-05-09T23:24:53.259Z,14.81
2023-05-09T23:27:19.533Z,14.73
2023-05-09T23:29:45.797Z,14.73
2023-05-09T23:32:12.072Z,14.72
2023-05-09T23:34:38.817Z,14.66
2023-05-09T23:37:05.097Z,14.64
2023-05-09T23:39:31.821Z,14.60
2023-05-09T23:41:58.164Z,14.57
2023-05-09T23:44:24.473Z,14.47
2023-05-09T23:46:50.825Z,14.51
2023-05-09T23:49:17.179Z,14.49
2023-05-09T23:51:43.603Z,14.42
2023-05-09T23:54:09.873Z,14.39
2023-05-09T23:56:36.205Z,14.36
2023-05-09T23:59:02.525Z,14.36
